createdAt,value
2019-01-21T00:00:52.025Z,-5.50
2019-01-21T00:03:24.009Z,-5.50
2019-01-21T00:05:56.301Z,-5.40
2019-01-21T00:08:27.633Z,-5.40
2019-01-21T00:10:58.944Z,-5.40
2019-01-21T00:13:31.240Z,-5.40
2019-01-21T00:16:03.282Z,-5.40
2019-01-21T00:18:34.387Z,-5.50
2019-01-21T00:21:06.713Z,-5.60
2019-01-21T00:23:38.600Z,-5.60
2019-01-21T00:26:09.702Z,-5.60
2019-01-21T00:28:41.532Z,-5.60
2019-01-21T00:31:13.341Z,-5.50
2019-01-21T00:33:44.698Z,-5.50
2019-01-21T00:36:16.031Z,-5.50
2019-01-21T00:38:47.694Z,-5.40
2019-01-21T00:41:19.646Z,-5.40
2019-01-21T00:43:51.354Z,-5.40
2019-01-21T00:46:22.927Z,-5.40
2019-01-21T00:48:54.034Z,-5.30
2019-01-21T00:51:25.653Z,-5.40
2019-01-21T00:53:57.513Z,-5.40
2019-01-21T00:56:29.194Z,-5.30
2019-01-21T00:59:00.242Z,-5.30
2019-01-21T01:01:31.272Z,-5.30
2019-01-21T01:04:02.657Z,-5.30
2019-01-21T01:06:35.384Z,-5.40
2019-01-21T01:09:09.423Z,-5.30
2019-01-21T01:11:40.809Z,-5.30
2019-01-21T01:14:12.975Z,-5.30
2019-01-21T01:16:44.755Z,-5.20
2019-01-21T01:19:16.411Z,-5.10
2019-01-21T01:21:48.291Z,-5.20
2019-01-21T01:24:19.917Z,-5.20
2019-01-21T01:26:51.585Z,-5.20
2019-01-21T01:29:22.911Z,-5.20
2019-01-21T01:31:55.472Z,-5.10
2019-01-21T01:34:27.059Z,-5.10
2019-01-21T01:36:58.410Z,-5.10
2019-01-21T01:39:30.265Z,-5.20
2019-01-21T01:42:01.692Z,-5.20
2019-01-21T01:44:33.658Z,-5.20
2019-01-21T01:47:06.227Z,-5.30
2019-01-21T01:49:38.037Z,-5.30
2019-01-21T01:52:09.486Z,-5.30
2019-01-21T01:54:41.113Z,-5.30
2019-01-21T01:57:13.250Z,-5.30
2019-01-21T01:59:44.317Z,-5.40
2019-01-21T02:02:16.522Z,-5.50
2019-01-21T02:04:47.551Z,-5.50
2019-01-21T02:07:19.517Z,-5.50
2019-01-21T02:09:51.587Z,-5.50
2019-01-21T02:12:22.858Z,-5.50
2019-01-21T02:14:53.888Z,-5.60
2019-01-21T02:17:25.966Z,-5.70
2019-01-21T02:20:00.717Z,-5.70
2019-01-21T02:22:34.537Z,-5.70
2019-01-21T02:25:06.983Z,-5.70
2019-01-21T02:28:20.276Z,-5.70
2019-01-21T02:31:38.509Z,-5.70
2019-01-21T02:34:17.807Z,-5.70
2019-01-21T02:37:36.892Z,-5.70
2019-01-21T02:40:39.756Z,-5.70
2019-01-21T02:44:10.570Z,-5.70
2019-01-21T02:47:20.627Z,-5.70
2019-01-21T02:50:32.882Z,-5.70
2019-01-21T02:53:35.490Z,-5.70
2019-01-21T02:56:52.190Z,-5.80
2019-01-21T03:00:38.264Z,-5.80
2019-01-21T03:04:11.519Z,-5.80
2019-01-21T03:07:22.760Z,-5.70
2019-01-21T03:10:28.931Z,-5.70
2019-01-21T03:14:01.798Z,-5.70
2019-01-21T03:17:47.568Z,-5.70
2019-01-21T03:20:58.378Z,-5.80
2019-01-21T03:24:32.273Z,-5.80
2019-01-21T03:27:44.993Z,-5.80
2019-01-21T03:31:02.190Z,-5.80
2019-01-21T03:34:22.667Z,-5.70
2019-01-21T03:37:47.723Z,-5.70
2019-01-21T03:40:58.783Z,-5.70
2019-01-21T03:44:14.712Z,-5.70
2019-01-21T03:47:23.427Z,-5.80
2019-01-21T03:50:26.806Z,-5.90
2019-01-21T03:53:42.519Z,-5.90
2019-01-21T03:56:38.406Z,-5.90
2019-01-21T03:59:58.022Z,-5.90
2019-01-21T04:03:32.762Z,-5.90
2019-01-21T04:06:30.930Z,-5.90
2019-01-21T04:09:54.299Z,-5.80
2019-01-21T04:12:48.346Z,-5.80
2019-01-21T04:16:07.058Z,-5.70
2019-01-21T04:19:00.548Z,-5.70
2019-01-21T04:22:02.122Z,-5.60
2019-01-21T04:25:14.008Z,-5.50
2019-01-21T04:28:50.433Z,-5.60
2019-01-21T04:32:08.699Z,-5.80
2019-01-21T04:35:53.712Z,-5.80
2019-01-21T04:39:32.354Z,-5.80
2019-01-21T04:42:51.215Z,-5.80
2019-01-21T04:46:06.367Z,-5.80
2019-01-21T04:49:01.198Z,-5.90
2019-01-21T04:52:42.584Z,-5.90
2019-01-21T04:56:12.780Z,-5.90
2019-01-21T04:59:18.219Z,-5.80
2019-01-21T05:02:36.501Z,-5.90
2019-01-21T05:05:37.342Z,-5.90
2019-01-21T05:09:14.017Z,-5.90
2019-01-21T05:12:18.935Z,-5.90
2019-01-21T05:15:56.996Z,-5.80
2019-01-21T05:19:27.510Z,-5.80
2019-01-21T05:23:00.610Z,-5.90
2019-01-21T05:26:28.561Z,-5.80
2019-01-21T05:29:18.010Z,-5.90
2019-01-21T05:32:37.644Z,-5.80
2019-01-21T05:35:43.223Z,-5.80
2019-01-21T05:38:38.665Z,-5.80
2019-01-21T05:42:26.449Z,-5.70
2019-01-21T05:46:18.576Z,-5.60
2019-01-21T05:49:39.124Z,-5.30
2019-01-21T05:53:11.936Z,-5.20
2019-01-21T05:56:37.053Z,-5.20
2019-01-21T05:59:42.640Z,-5.30
2019-01-21T06:03:09.197Z,-5.40
2019-01-21T06:06:15.768Z,-5.40
2019-01-21T06:09:29.635Z,-5.50
2019-01-21T06:12:50.858Z,-5.50
2019-01-21T06:16:14.178Z,-5.50
2019-01-21T06:19:19.841Z,-5.60
2019-01-21T06:22:32.800Z,-5.60
2019-01-21T06:25:46.234Z,-5.60
2019-01-21T06:29:13.134Z,-5.50
2019-01-21T06:32:39.521Z,-5.60
2019-01-21T06:36:01.516Z,-5.60
2019-01-21T06:39:17.530Z,-5.70
2019-01-21T06:42:14.028Z,-5.70
2019-01-21T06:45:14.538Z,-5.80
2019-01-21T06:48:36.470Z,-5.80
2019-01-21T06:51:54.610Z,-5.80
2019-01-21T06:54:48.536Z,-5.80
2019-01-21T06:58:26.783Z,-5.80
2019-01-21T07:01:55.228Z,-5.90
2019-01-21T07:05:25.679Z,-5.80
2019-01-21T07:09:01.178Z,-5.60
2019-01-21T07:12:24.866Z,-5.60
2019-01-21T07:15:52.396Z,-5.70
2019-01-21T07:19:26.741Z,-5.80
2019-01-21T07:22:43.362Z,-5.80
2019-01-21T07:25:52.908Z,-5.90
2019-01-21T07:29:28.242Z,-5.90
2019-01-21T07:32:39.683Z,-5.90
2019-01-21T07:36:13.122Z,-5.80
2019-01-21T07:39:39.124Z,-5.60
2019-01-21T07:42:57.332Z,-5.20
2019-01-21T07:46:57.214Z,-4.90
2019-01-21T07:50:13.085Z,-4.50
2019-01-21T07:53:35.605Z,-4.20
2019-01-21T07:57:02.539Z,-3.70
2019-01-21T08:00:25.543Z,-3.20
2019-01-21T08:03:44.876Z,-2.60
2019-01-21T08:06:53.036Z,-2.10
2019-01-21T08:10:14.580Z,-1.60
2019-01-21T08:13:52.701Z,-1.30
2019-01-21T08:16:59.561Z,-1.00
2019-01-21T08:20:16.807Z,-0.60
2019-01-21T08:24:07.819Z,-0.40
2019-01-21T08:27:32.034Z,-0.10
2019-01-21T08:30:46.725Z,0.20
2019-01-21T08:34:01.498Z,0.50
2019-01-21T08:37:36.034Z,0.70
2019-01-21T08:40:34.394Z,0.80
2019-01-21T08:43:48.990Z,1.00
2019-01-21T08:47:26.862Z,1.20
2019-01-21T08:51:15.639Z,1.40
2019-01-21T08:54:41.998Z,1.50
2019-01-21T08:58:13.945Z,1.60
2019-01-21T09:01:38.407Z,1.70
2019-01-21T09:04:50.733Z,1.90
2019-01-21T09:08:14.053Z,2.10
2019-01-21T09:11:31.896Z,2.30
2019-01-21T09:14:53.720Z,2.50
2019-01-21T09:18:11.794Z,2.60
2019-01-21T09:21:31.022Z,2.80
2019-01-21T09:24:42.738Z,2.80
2019-01-21T09:27:57.615Z,2.80
2019-01-21T09:31:29.535Z,2.90
2019-01-21T09:34:58.968Z,2.90
2019-01-21T09:38:37.581Z,3.00
2019-01-21T09:41:53.028Z,3.20
2019-01-21T09:45:11.509Z,3.40
2019-01-21T09:47:40.882Z,3.50
2019-01-21T09:50:12.849Z,3.40
2019-01-21T09:52:45.577Z,3.50
2019-01-21T09:55:21.843Z,3.60
2019-01-21T09:58:09.137Z,3.90
2019-01-21T10:00:42.139Z,4.10
2019-01-21T10:03:14.941Z,4.30
2019-01-21T10:05:49.424Z,4.50
2019-01-21T10:09:08.591Z,5.00
2019-01-21T10:12:51.599Z,5.20
2019-01-21T10:16:21.420Z,5.40
2019-01-21T10:19:29.114Z,5.50
2019-01-21T10:22:26.818Z,5.40
2019-01-21T10:25:50.082Z,5.40
2019-01-21T10:28:39.677Z,5.70
2019-01-21T10:32:06.974Z,5.30
2019-01-21T10:35:35.347Z,5.30
2019-01-21T10:39:26.734Z,4.90
2019-01-21T10:42:46.449Z,4.60
2019-01-21T10:45:28.139Z,4.60
2019-01-21T10:48:56.593Z,5.00
2019-01-21T10:52:26.471Z,5.10
2019-01-21T10:55:24.611Z,4.80
2019-01-21T10:58:17.318Z,4.00
2019-01-21T11:01:24.254Z,3.30
2019-01-21T11:04:25.730Z,2.70
2019-01-21T11:08:04.780Z,2.70
2019-01-21T11:11:42.352Z,2.80
2019-01-21T11:15:05.950Z,3.10
2019-01-21T11:18:25.019Z,3.50
2019-01-21T11:21:37.480Z,4.00
2019-01-21T11:25:04.227Z,4.20
2019-01-21T11:28:32.526Z,4.20
2019-01-21T11:31:37.660Z,4.20
2019-01-21T11:34:51.811Z,4.10
2019-01-21T11:37:53.376Z,3.70
2019-01-21T11:41:15.297Z,3.50
2019-01-21T11:44:16.258Z,3.50
2019-01-21T11:47:20.802Z,3.30
2019-01-21T11:50:20.072Z,3.20
2019-01-21T11:53:07.509Z,3.10
2019-01-21T11:56:00.893Z,3.10
2019-01-21T11:59:30.582Z,3.10
2019-01-21T12:02:52.240Z,3.00
2019-01-21T12:05:57.328Z,2.80
2019-01-21T12:09:13.760Z,2.70
2019-01-21T12:12:19.083Z,2.50
2019-01-21T12:15:27.763Z,2.40
2019-01-21T12:19:06.781Z,2.30
2019-01-21T12:22:20.783Z,2.30
2019-01-21T12:25:24.798Z,2.30
2019-01-21T12:28:44.901Z,2.20
2019-01-21T12:31:51.918Z,2.20
2019-01-21T12:35:28.645Z,2.00
2019-01-21T12:38:49.373Z,2.00
2019-01-21T12:42:09.714Z,2.10
2019-01-21T12:45:16.377Z,2.00
2019-01-21T12:48:31.108Z,2.00
2019-01-21T12:52:15.089Z,2.00
2019-01-21T12:55:20.199Z,2.00
2019-01-21T12:58:23.579Z,2.00
2019-01-21T13:01:32.348Z,2.00
2019-01-21T13:04:55.819Z,2.00
2019-01-21T13:08:01.747Z,2.00
2019-01-21T13:11:17.461Z,2.00
2019-01-21T13:14:26.783Z,2.00
2019-01-21T13:17:40.087Z,2.00
2019-01-21T13:20:52.950Z,2.00
2019-01-21T13:24:02.094Z,2.00
2019-01-21T13:26:56.836Z,2.00
2019-01-21T13:30:28.141Z,2.00
2019-01-21T13:33:47.985Z,2.00
2019-01-21T13:36:45.961Z,2.10
2019-01-21T13:39:42.218Z,2.00
2019-01-21T13:42:40.189Z,2.00
2019-01-21T13:45:53.071Z,2.10
2019-01-21T13:49:09.792Z,2.00
2019-01-21T13:52:44.868Z,2.00
2019-01-21T13:56:24.428Z,2.00
2019-01-21T13:59:36.193Z,1.80
2019-01-21T14:02:25.227Z,1.60
2019-01-21T14:06:02.442Z,1.60
2019-01-21T14:09:45.695Z,1.50
2019-01-21T14:13:03.428Z,1.50
2019-01-21T14:16:27.997Z,1.50
2019-01-21T14:20:09.414Z,1.50
2019-01-21T14:23:53.403Z,1.50
2019-01-21T14:26:55.245Z,1.50
2019-01-21T14:30:08.516Z,1.60
2019-01-21T14:33:00.432Z,1.50
2019-01-21T14:36:17.568Z,1.60
2019-01-21T14:39:35.654Z,1.50
2019-01-21T14:42:41.128Z,1.40
2019-01-21T14:45:57.197Z,1.40
2019-01-21T14:49:16.450Z,1.40
2019-01-21T14:52:29.810Z,1.40
2019-01-21T14:55:39.628Z,1.20
2019-01-21T14:58:45.802Z,1.10
2019-01-21T15:01:56.621Z,0.80
2019-01-21T15:04:43.761Z,0.70
2019-01-21T15:07:57.005Z,0.50
2019-01-21T15:11:34.658Z,0.50
2019-01-21T15:14:30.279Z,0.40
2019-01-21T15:17:50.023Z,0.30
2019-01-21T15:20:43.042Z,0.10
2019-01-21T15:23:33.594Z,0.10
2019-01-21T15:26:44.154Z,0.00
2019-01-21T15:30:07.190Z,-0.10
2019-01-21T15:33:24.509Z,-0.10
2019-01-21T15:36:42.831Z,-0.20
2019-01-21T15:39:49.020Z,-0.20
2019-01-21T15:42:58.858Z,-0.30
2019-01-21T15:46:22.161Z,-0.40
2019-01-21T15:49:05.237Z,-0.50
2019-01-21T15:52:28.857Z,-0.70
2019-01-21T15:55:44.004Z,-0.80
2019-01-21T15:59:21.903Z,-0.90
2019-01-21T16:02:11.223Z,-1.00
2019-01-21T16:04:59.021Z,-1.00
2019-01-21T16:07:54.732Z,-1.10
2019-01-21T16:11:22.429Z,-1.20
2019-01-21T16:14:34.367Z,-1.20
2019-01-21T16:17:34.082Z,-1.20
2019-01-21T16:20:42.445Z,-1.10
2019-01-21T16:24:08.144Z,-1.00
2019-01-21T16:26:50.646Z,-1.00
2019-01-21T16:29:40.541Z,-1.00
2019-01-21T16:32:54.485Z,-1.10
2019-01-21T16:36:00.494Z,-1.20
2019-01-21T16:38:57.691Z,-1.30
2019-01-21T16:42:17.169Z,-1.30
2019-01-21T16:44:49.429Z,-1.40
2019-01-21T16:47:21.138Z,-1.50
2019-01-21T16:49:52.223Z,-1.60
2019-01-21T16:52:24.639Z,-1.60
2019-01-21T16:54:56.263Z,-1.70
2019-01-21T16:57:27.588Z,-1.70
2019-01-21T16:59:59.778Z,-1.80
2019-01-21T17:02:31.252Z,-1.70
2019-01-21T17:05:02.761Z,-1.70
2019-01-21T17:07:34.480Z,-1.70
2019-01-21T17:10:09.449Z,-1.80
2019-01-21T17:12:41.198Z,-1.70
2019-01-21T17:15:12.600Z,-1.60
2019-01-21T17:17:44.385Z,-1.60
2019-01-21T17:20:19.992Z,-1.60
2019-01-21T17:22:52.071Z,-1.70
2019-01-21T17:25:23.550Z,-1.70
2019-01-21T17:27:55.297Z,-1.80
2019-01-21T17:30:26.692Z,-1.90
2019-01-21T17:32:58.096Z,-1.90
2019-01-21T17:35:29.429Z,-1.90
2019-01-21T17:38:01.558Z,-1.90
2019-01-21T17:40:33.121Z,-1.90
2019-01-21T17:43:04.813Z,-1.90
2019-01-21T17:45:36.149Z,-1.80
2019-01-21T17:48:07.593Z,-1.80
2019-01-21T17:50:39.531Z,-1.90
2019-01-21T17:53:11.085Z,-2.00
2019-01-21T17:55:42.765Z,-2.10
2019-01-21T17:58:14.703Z,-2.20
2019-01-21T18:00:46.480Z,-2.30
2019-01-21T18:03:18.036Z,-2.40
2019-01-21T18:05:49.059Z,-2.40
2019-01-21T18:08:20.389Z,-2.40
2019-01-21T18:10:51.977Z,-2.40
2019-01-21T18:13:23.908Z,-2.30
2019-01-21T18:15:55.594Z,-2.40
2019-01-21T18:18:26.900Z,-2.40
2019-01-21T18:20:58.265Z,-2.40
2019-01-21T18:23:29.659Z,-2.50
2019-01-21T18:26:00.991Z,-2.40
2019-01-21T18:28:32.017Z,-2.50
2019-01-21T18:31:04.189Z,-2.60
2019-01-21T18:33:35.629Z,-2.50
2019-01-21T18:36:07.621Z,-2.50
2019-01-21T18:38:38.641Z,-2.60
2019-01-21T18:41:09.822Z,-2.60
2019-01-21T18:43:40.846Z,-2.60
2019-01-21T18:46:12.361Z,-2.60
2019-01-21T18:48:46.737Z,-2.60
2019-01-21T18:51:18.066Z,-2.70
2019-01-21T18:53:49.664Z,-2.70
2019-01-21T18:56:20.966Z,-2.80
2019-01-21T18:58:51.999Z,-2.80
2019-01-21T19:01:23.845Z,-2.80
2019-01-21T19:03:56.572Z,-2.80
2019-01-21T19:06:27.835Z,-2.80
2019-01-21T19:08:59.123Z,-2.80
2019-01-21T19:11:30.461Z,-2.90
2019-01-21T19:14:02.430Z,-3.00
2019-01-21T19:16:34.592Z,-3.00
2019-01-21T19:19:06.255Z,-3.00
2019-01-21T19:21:37.570Z,-3.00
2019-01-21T19:24:08.993Z,-3.00
2019-01-21T19:26:40.571Z,-3.10
2019-01-21T19:29:11.941Z,-3.00
2019-01-21T19:31:43.569Z,-3.00
2019-01-21T19:34:15.212Z,-2.90
2019-01-21T19:36:46.816Z,-2.80
2019-01-21T19:39:18.115Z,-2.70
2019-01-21T19:41:49.985Z,-2.60
2019-01-21T19:44:21.676Z,-2.60
2019-01-21T19:46:53.431Z,-2.70
2019-01-21T19:49:24.477Z,-2.80
2019-01-21T19:52:00.217Z,-2.80
2019-01-21T19:54:29.018Z,-2.70
2019-01-21T19:57:01.898Z,-2.80
2019-01-21T19:59:33.545Z,-2.70
2019-01-21T20:02:05.172Z,-2.70
2019-01-21T20:04:36.416Z,-2.60
2019-01-21T20:07:08.479Z,-2.50
2019-01-21T20:09:39.749Z,-2.40
2019-01-21T20:12:11.405Z,-2.30
2019-01-21T20:14:46.179Z,-2.30
2019-01-21T20:17:22.392Z,-2.20
2019-01-21T20:19:55.315Z,-2.10
2019-01-21T20:22:27.001Z,-2.10
2019-01-21T20:24:58.916Z,-2.00
2019-01-21T20:27:30.968Z,-2.00
2019-01-21T20:30:02.718Z,-1.90
2019-01-21T20:32:34.437Z,-1.90
2019-01-21T20:35:06.764Z,-1.90
2019-01-21T20:37:38.619Z,-1.90
2019-01-21T20:40:14.158Z,-1.80
2019-01-21T20:42:45.800Z,-1.70
2019-01-21T20:45:17.707Z,-1.70
2019-01-21T20:47:57.132Z,-1.80
2019-01-21T20:50:31.366Z,-1.70
2019-01-21T20:53:03.042Z,-1.70
2019-01-21T20:55:38.207Z,-1.70
2019-01-21T20:58:11.963Z,-1.70
2019-01-21T21:00:51.823Z,-1.70
2019-01-21T21:03:24.090Z,-1.70
2019-01-21T21:05:55.944Z,-1.70
2019-01-21T21:08:28.255Z,-1.70
2019-01-21T21:11:00.496Z,-1.70
2019-01-21T21:13:43.284Z,-1.70
2019-01-21T21:16:15.624Z,-1.70
2019-01-21T21:19:01.225Z,-1.70
2019-01-21T21:21:33.156Z,-1.60
2019-01-21T21:24:04.886Z,-1.60
2019-01-21T21:26:36.567Z,-1.50
2019-01-21T21:29:08.630Z,-1.50
2019-01-21T21:31:40.223Z,-1.60
2019-01-21T21:34:12.043Z,-1.50
2019-01-21T21:36:44.126Z,-1.50
2019-01-21T21:39:16.068Z,-1.50
2019-01-21T21:41:47.787Z,-1.40
2019-01-21T21:44:19.351Z,-1.40
2019-01-21T21:46:50.669Z,-1.40
2019-01-21T21:49:22.457Z,-1.40
2019-01-21T21:51:53.726Z,-1.40
2019-01-21T21:54:25.145Z,-1.50
2019-01-21T21:56:58.281Z,-1.40
2019-01-21T21:59:29.884Z,-1.50
2019-01-21T22:02:00.907Z,-1.40
2019-01-21T22:04:32.155Z,-1.50
2019-01-21T22:07:03.453Z,-1.60
2019-01-21T22:09:35.995Z,-1.60
2019-01-21T22:12:07.244Z,-1.70
2019-01-21T22:14:38.626Z,-1.70
2019-01-21T22:17:10.480Z,-1.70
2019-01-21T22:19:41.999Z,-1.70
2019-01-21T22:22:13.563Z,-1.80
2019-01-21T22:24:45.223Z,-1.90
2019-01-21T22:27:17.800Z,-2.00
2019-01-21T22:29:49.370Z,-2.00
2019-01-21T22:32:21.553Z,-2.00
2019-01-21T22:34:53.155Z,-2.20
2019-01-21T22:37:24.943Z,-2.20
2019-01-21T22:39:56.601Z,-2.20
2019-01-21T22:42:27.624Z,-2.30
2019-01-21T22:44:59.569Z,-2.30
2019-01-21T22:47:30.910Z,-2.40
2019-01-21T22:50:02.806Z,-2.50
2019-01-21T22:52:34.630Z,-2.60
2019-01-21T22:55:07.327Z,-2.70
2019-01-21T22:57:38.794Z,-2.80
2019-01-21T23:00:48.636Z,-2.80
2019-01-21T23:03:20.100Z,-2.90
2019-01-21T23:05:51.969Z,-2.90
2019-01-21T23:08:23.680Z,-3.00
2019-01-21T23:10:55.068Z,-3.10
2019-01-21T23:13:26.073Z,-3.10
2019-01-21T23:15:58.067Z,-3.10
2019-01-21T23:18:29.087Z,-3.20
2019-01-21T23:21:01.307Z,-3.30
2019-01-21T23:23:33.385Z,-3.30
2019-01-21T23:26:05.090Z,-3.40
2019-01-21T23:28:36.338Z,-3.30
2019-01-21T23:31:08.267Z,-3.40
2019-01-21T23:33:40.208Z,-3.40
2019-01-21T23:36:12.016Z,-3.40
2019-01-21T23:38:43.636Z,-3.40
2019-01-21T23:41:14.640Z,-3.40
2019-01-21T23:43:46.238Z,-3.40
2019-01-21T23:46:17.780Z,-3.40
2019-01-21T23:48:49.261Z,-3.50
2019-01-21T23:51:20.691Z,-3.60
2019-01-21T23:53:53.857Z,-3.70
2019-01-21T23:56:25.797Z,-3.70
2019-01-21T23:58:57.828Z,-3.70
